Terminal Aerodrome Forecast
Issued by NWS

Home | Current Version | Previous Version | Text Only | Print | Product List | Glossary On
Versions: 1 2 3 4 5 6 7 8 9 10 11 12
000
FTUS45 KABQ 302300
TAFROW
TAF
KROW 302320Z 3100/3124 17008G16KT P6SM SCT110 SCT150
     FM310200 21011KT P6SM FEW110
     FM311700 24010G18KT P6SM SKC
     FM312000 24018G28KT P6SM FEW110=

USA.gov is the U.S. government's official web portal to all federal, state and local government web resources and services.